createdAt,value
2022-08-25T00:02:13.487Z,27.03
2022-08-25T00:04:40.477Z,27.01
2022-08-25T00:07:09.253Z,27.00
2022-08-25T00:09:36.086Z,26.97
2022-08-25T00:12:05.237Z,26.96
2022-08-25T00:14:35.317Z,26.97
2022-08-25T00:17:02.762Z,26.93
2022-08-25T00:19:35.030Z,26.97
2022-08-25T00:22:03.035Z,26.89
2022-08-25T00:24:29.869Z,26.86
2022-08-25T00:26:58.181Z,26.85
2022-08-25T00:29:26.567Z,26.84
2022-08-25T00:31:55.097Z,26.81
2022-08-25T00:34:26.742Z,26.82
2022-08-25T00:36:53.746Z,26.79
2022-08-25T00:39:22.850Z,26.79
2022-08-25T00:41:51.554Z,26.75
2022-08-25T00:44:18.957Z,26.72
2022-08-25T00:46:55.087Z,26.75
2022-08-25T00:49:26.208Z,26.79
2022-08-25T00:52:09.259Z,26.83
2022-08-25T00:54:49.747Z,26.79
2022-08-25T00:57:33.916Z,26.67
2022-08-25T01:00:05.065Z,26.63
2022-08-25T01:02:31.750Z,26.61
2022-08-25T01:04:58.900Z,26.58
2022-08-25T01:07:25.555Z,26.55
2022-08-25T01:09:53.431Z,26.51
2022-08-25T01:12:20.622Z,26.50
2022-08-25T01:14:48.769Z,26.48
2022-08-25T01:17:17.090Z,26.47
2022-08-25T01:19:44.157Z,26.46
2022-08-25T01:22:12.150Z,26.42
2022-08-25T01:24:44.816Z,26.47
2022-08-25T01:27:12.127Z,26.40
2022-08-25T01:29:39.284Z,26.37
2022-08-25T01:32:09.357Z,26.37
2022-08-25T01:34:41.255Z,26.36
2022-08-25T01:37:08.796Z,26.33
2022-08-25T01:39:39.895Z,26.29
2022-08-25T01:42:12.272Z,26.33
2022-08-25T01:44:42.533Z,26.27
2022-08-25T01:47:09.933Z,26.24
2022-08-25T01:49:37.026Z,26.21
2022-08-25T01:52:13.308Z,26.27
2022-08-25T01:54:39.860Z,26.19
2022-08-25T01:57:06.834Z,26.15
2022-08-25T01:59:33.524Z,26.12
2022-08-25T02:02:00.382Z,26.08
2022-08-25T02:04:32.239Z,26.06
2022-08-25T02:07:01.170Z,26.07
2022-08-25T02:09:28.163Z,26.04
2022-08-25T02:11:55.241Z,26.02
2022-08-25T02:14:21.959Z,25.99
2022-08-25T02:16:51.080Z,25.99
2022-08-25T02:19:19.732Z,25.97
2022-08-25T02:21:47.243Z,25.94
2022-08-25T02:24:14.458Z,25.93
2022-08-25T02:26:41.439Z,25.89
2022-08-25T02:29:09.034Z,25.87
2022-08-25T02:31:36.391Z,25.85
2022-08-25T02:34:04.351Z,25.82
2022-08-25T02:36:32.177Z,25.81
2022-08-25T02:38:59.569Z,25.78
2022-08-25T02:41:31.028Z,25.76
2022-08-25T02:43:58.973Z,25.74
2022-08-25T02:46:25.800Z,25.70
2022-08-25T02:48:55.349Z,25.68
2022-08-25T02:51:24.426Z,25.67
2022-08-25T02:53:51.341Z,25.64
2022-08-25T02:56:19.148Z,25.62
2022-08-25T02:58:47.036Z,25.58
2022-08-25T03:01:14.973Z,25.57
2022-08-25T03:03:43.462Z,25.56
2022-08-25T03:06:13.188Z,25.55
2022-08-25T03:08:42.171Z,25.52
2022-08-25T03:11:09.764Z,25.50
2022-08-25T03:13:37.283Z,25.48
2022-08-25T03:16:05.976Z,25.47
2022-08-25T03:18:40.267Z,25.45
2022-08-25T03:21:07.517Z,25.42
2022-08-25T03:23:34.630Z,25.41
2022-08-25T03:26:19.758Z,25.40
2022-08-25T03:28:46.293Z,25.40
2022-08-25T03:31:13.476Z,25.37
2022-08-25T03:33:40.316Z,25.36
2022-08-25T03:36:08.679Z,25.33
2022-08-25T03:38:38.380Z,25.32
2022-08-25T03:41:15.606Z,25.40
2022-08-25T03:43:42.629Z,25.29
2022-08-25T03:46:16.941Z,25.28
2022-08-25T03:48:43.570Z,25.28
2022-08-25T03:51:10.174Z,25.25
2022-08-25T03:53:36.810Z,25.24
2022-08-25T03:56:03.590Z,25.21
2022-08-25T03:58:30.151Z,25.20
2022-08-25T04:01:00.514Z,25.18
2022-08-25T04:03:27.289Z,25.17
2022-08-25T04:05:53.903Z,25.16
2022-08-25T04:08:25.835Z,25.13
2022-08-25T04:10:52.444Z,25.13
2022-08-25T04:13:19.610Z,25.11
2022-08-25T04:15:46.258Z,25.08
2022-08-25T04:20:46.578Z,25.07
2022-08-25T04:23:13.487Z,25.04
2022-08-25T04:25:43.980Z,25.02
2022-08-25T04:28:12.859Z,24.99
2022-08-25T04:30:43.391Z,25.02
2022-08-25T04:33:09.975Z,24.97
2022-08-25T04:35:36.569Z,24.94
2022-08-25T04:38:05.095Z,24.91
2022-08-25T04:40:33.586Z,24.90
2022-08-25T04:43:00.297Z,24.89
2022-08-25T04:45:27.023Z,24.87
2022-08-25T04:47:55.137Z,24.86
2022-08-25T04:50:21.856Z,24.86
2022-08-25T04:52:49.433Z,24.85
2022-08-25T04:55:16.227Z,24.84
2022-08-25T04:57:43.394Z,24.83
2022-08-25T05:00:11.629Z,24.83
2022-08-25T05:02:38.162Z,24.82
2022-08-25T05:05:05.122Z,24.82
2022-08-25T05:07:31.794Z,24.81
2022-08-25T05:09:58.570Z,24.80
2022-08-25T05:12:25.259Z,24.79
2022-08-25T05:14:55.623Z,24.79
2022-08-25T05:17:22.586Z,24.80
2022-08-25T05:19:49.252Z,24.77
2022-08-25T05:22:15.887Z,24.77
2022-08-25T05:24:42.407Z,24.78
2022-08-25T05:27:08.972Z,24.77
2022-08-25T05:29:35.699Z,24.78
2022-08-25T05:32:02.474Z,24.78
2022-08-25T05:34:30.259Z,24.77
2022-08-25T05:37:00.114Z,24.78
2022-08-25T05:39:27.091Z,24.79
2022-08-25T05:41:53.705Z,24.79
2022-08-25T05:44:21.314Z,24.80
2022-08-25T05:46:48.250Z,24.81
2022-08-25T05:49:14.781Z,24.80
2022-08-25T05:51:41.309Z,24.81
2022-08-25T05:54:07.970Z,24.81
2022-08-25T05:56:34.613Z,24.83
2022-08-25T05:59:02.451Z,24.82
2022-08-25T06:01:50.267Z,24.84
2022-08-25T06:04:18.132Z,24.83
2022-08-25T06:06:44.841Z,24.81
2022-08-25T06:09:11.873Z,24.82
2022-08-25T06:11:40.374Z,24.82
2022-08-25T06:14:08.863Z,24.80
2022-08-25T06:16:35.593Z,24.76
2022-08-25T06:19:02.281Z,24.73
2022-08-25T06:21:29.358Z,24.70
2022-08-25T06:23:56.012Z,24.69
2022-08-25T06:26:23.508Z,24.68
2022-08-25T06:28:51.272Z,24.66
2022-08-25T06:31:19.659Z,24.65
2022-08-25T06:33:46.459Z,24.65
2022-08-25T06:36:13.058Z,24.63
2022-08-25T06:38:39.698Z,24.62
2022-08-25T06:41:08.038Z,24.63
2022-08-25T06:43:35.083Z,24.63
2022-08-25T06:46:18.713Z,24.77
2022-08-25T06:48:45.402Z,24.69
2022-08-25T06:51:15.186Z,24.73
2022-08-25T06:53:43.496Z,24.76
2022-08-25T06:56:10.969Z,24.81
2022-08-25T06:58:38.669Z,24.87
2022-08-25T07:01:22.267Z,25.00
2022-08-25T07:03:52.629Z,25.00
2022-08-25T07:06:19.882Z,25.08
2022-08-25T07:08:48.962Z,25.19
2022-08-25T07:11:17.589Z,25.25
2022-08-25T07:13:45.539Z,25.33
2022-08-25T07:16:12.596Z,25.42
2022-08-25T07:18:39.287Z,25.49
2022-08-25T07:21:08.781Z,25.56
2022-08-25T07:23:36.632Z,25.66
2022-08-25T07:26:15.747Z,25.82
2022-08-25T07:28:53.751Z,25.88
2022-08-25T07:31:21.581Z,25.99
2022-08-25T07:34:14.849Z,26.11
2022-08-25T07:36:43.446Z,26.24
2022-08-25T07:39:10.610Z,26.34
2022-08-25T07:41:39.507Z,26.45
2022-08-25T07:44:07.698Z,26.56
2022-08-25T07:46:34.364Z,26.67
2022-08-25T07:49:01.002Z,26.77
2022-08-25T07:54:15.062Z,27.03
2022-08-25T07:56:43.147Z,27.13
2022-08-25T07:59:12.598Z,27.24
2022-08-25T08:01:40.239Z,27.37
2022-08-25T08:04:07.581Z,27.48
2022-08-25T08:06:34.275Z,27.61
2022-08-25T08:09:02.713Z,27.70
2022-08-25T08:11:34.608Z,27.85
2022-08-25T08:14:02.236Z,27.95
2022-08-25T08:16:30.607Z,28.08
2022-08-25T08:18:58.505Z,28.21
2022-08-25T08:21:33.029Z,28.36
2022-08-25T08:24:00.734Z,28.46
2022-08-25T08:26:48.097Z,28.56
2022-08-25T08:29:16.435Z,28.68
2022-08-25T08:31:48.571Z,28.77
2022-08-25T08:34:16.377Z,28.90
2022-08-25T08:36:43.312Z,29.00
2022-08-25T08:39:12.003Z,29.13
2022-08-25T08:42:17.205Z,29.34
2022-08-25T08:44:46.555Z,29.40
2022-08-25T08:47:28.240Z,29.58
2022-08-25T08:50:34.803Z,29.76
2022-08-25T08:53:22.829Z,29.88
2022-08-25T08:55:53.802Z,29.93
2022-08-25T08:58:34.245Z,30.07
2022-08-25T09:01:02.294Z,30.17
2022-08-25T09:03:39.732Z,30.29
2022-08-25T09:06:17.714Z,30.40
2022-08-25T09:08:45.167Z,30.44
2022-08-25T09:11:18.997Z,30.56
2022-08-25T09:14:09.499Z,30.76
2022-08-25T09:17:06.118Z,30.90
2022-08-25T09:19:54.405Z,30.96
2022-08-25T09:22:35.665Z,31.04
2022-08-25T09:25:29.587Z,31.15
2022-08-25T09:28:08.685Z,31.14
2022-08-25T09:30:59.805Z,31.35
2022-08-25T09:33:29.040Z,31.32
2022-08-25T09:35:57.324Z,31.43
2022-08-25T09:38:26.340Z,31.50
2022-08-25T09:40:58.931Z,31.58
2022-08-25T09:43:40.360Z,31.65
2022-08-25T09:46:27.097Z,31.74
2022-08-25T09:48:56.687Z,31.77
2022-08-25T09:51:41.590Z,31.88
2022-08-25T09:54:15.738Z,31.99
2022-08-25T09:57:09.275Z,32.15
2022-08-25T09:59:37.577Z,32.09
2022-08-25T10:02:24.373Z,32.19
2022-08-25T10:04:52.319Z,32.49
2022-08-25T10:07:26.793Z,32.35
2022-08-25T10:09:56.866Z,32.39
2022-08-25T10:12:32.189Z,32.43
2022-08-25T10:19:45.009Z,32.55
2022-08-25T10:22:20.452Z,32.68
2022-08-25T10:24:47.360Z,32.68
2022-08-25T10:27:36.754Z,32.71
2022-08-25T10:30:11.125Z,32.80
2022-08-25T10:33:21.296Z,32.94
2022-08-25T10:36:06.689Z,32.88
2022-08-25T10:38:36.655Z,32.92
2022-08-25T10:41:25.040Z,32.98
2022-08-25T10:44:31.172Z,33.08
2022-08-25T10:47:13.473Z,33.21
2022-08-25T10:49:47.522Z,33.24
2022-08-25T10:52:29.134Z,33.31
2022-08-25T10:55:09.114Z,33.29
2022-08-25T10:57:47.313Z,33.34
2022-08-25T11:00:23.732Z,33.37
2022-08-25T11:03:22.970Z,33.49
2022-08-25T11:05:59.206Z,33.40
2022-08-25T11:08:39.924Z,33.54
2022-08-25T11:11:30.910Z,33.68
2022-08-25T11:14:12.289Z,33.73
2022-08-25T11:16:52.698Z,33.81
2022-08-25T11:19:26.999Z,33.86
2022-08-25T11:22:12.554Z,33.98
2022-08-25T11:24:49.515Z,34.02
2022-08-25T11:27:24.379Z,34.09
2022-08-25T11:30:07.038Z,34.21
2022-08-25T11:32:35.699Z,34.23
2022-08-25T11:35:05.595Z,34.32
2022-08-25T11:37:33.192Z,34.41
2022-08-25T11:40:51.908Z,34.61
2022-08-25T11:43:45.977Z,34.70
2022-08-25T11:46:40.390Z,34.88
2022-08-25T11:49:09.626Z,34.79
2022-08-25T11:51:47.795Z,34.82
2022-08-25T11:54:17.633Z,34.69
2022-08-25T11:57:04.947Z,34.81
2022-08-25T11:59:49.724Z,34.83
2022-08-25T12:02:31.198Z,34.82
2022-08-25T12:04:57.992Z,34.75
2022-08-25T12:07:47.374Z,34.83
2022-08-25T12:10:21.803Z,34.95
2022-08-25T12:12:49.307Z,34.98
2022-08-25T12:15:42.847Z,35.05
2022-08-25T12:18:18.722Z,35.06
2022-08-25T12:20:54.967Z,35.37
2022-08-25T12:23:44.990Z,35.13
2022-08-25T12:27:03.349Z,35.12
2022-08-25T12:29:42.774Z,34.86
2022-08-25T12:32:41.572Z,35.15
2022-08-25T12:35:46.513Z,34.78
2022-08-25T12:38:42.582Z,34.78
2022-08-25T12:41:12.220Z,35.04
2022-08-25T12:43:42.396Z,34.79
2022-08-25T12:46:21.580Z,34.92
2022-08-25T12:48:58.544Z,34.98
2022-08-25T12:51:27.865Z,35.04
2022-08-25T12:54:19.042Z,35.24
2022-08-25T12:57:03.132Z,35.35
2022-08-25T12:59:33.070Z,35.40
2022-08-25T13:02:33.590Z,35.58
2022-08-25T13:05:16.815Z,35.63
2022-08-25T13:07:43.293Z,35.68
2022-08-25T13:10:42.413Z,35.81
2022-08-25T13:13:08.982Z,35.87
2022-08-25T13:15:47.023Z,35.95
2022-08-25T13:18:20.023Z,36.06
2022-08-25T13:20:54.902Z,36.16
2022-08-25T13:23:29.204Z,36.26
2022-08-25T13:25:58.322Z,36.34
2022-08-25T13:28:32.113Z,36.48
2022-08-25T13:31:06.208Z,36.58
2022-08-25T13:33:34.146Z,36.62
2022-08-25T13:36:20.666Z,36.71
2022-08-25T13:38:49.140Z,36.81
2022-08-25T13:41:28.744Z,36.86
2022-08-25T13:44:00.861Z,36.77
2022-08-25T13:46:28.785Z,36.72
2022-08-25T13:49:08.932Z,36.79
2022-08-25T13:51:36.548Z,36.59
2022-08-25T13:54:07.202Z,36.60
2022-08-25T13:56:41.576Z,36.61
2022-08-25T13:59:23.079Z,36.61
2022-08-25T14:01:52.313Z,36.43
2022-08-25T14:04:31.993Z,36.45
2022-08-25T14:07:26.951Z,36.47
2022-08-25T14:27:15.512Z,36.03
2022-08-25T14:29:42.124Z,35.95
2022-08-25T14:32:09.950Z,35.88
2022-08-25T14:34:38.636Z,35.79
2022-08-25T14:37:12.460Z,35.78
2022-08-25T14:39:42.422Z,35.66
2022-08-25T14:42:11.758Z,35.58
2022-08-25T14:44:38.479Z,35.49
2022-08-25T14:47:07.307Z,35.37
2022-08-25T14:49:38.262Z,35.32
2022-08-25T14:52:09.792Z,35.27
2022-08-25T14:54:37.723Z,35.12
2022-08-25T14:57:04.479Z,35.05
2022-08-25T14:59:35.102Z,35.00
2022-08-25T15:02:02.278Z,35.00
2022-08-25T15:04:30.130Z,35.01
2022-08-25T15:07:02.797Z,35.05
2022-08-25T15:09:33.661Z,35.06
2022-08-25T15:12:00.847Z,35.06
2022-08-25T15:14:29.073Z,35.07
2022-08-25T15:17:00.960Z,35.09
2022-08-25T15:19:28.503Z,35.11
2022-08-25T15:21:58.129Z,35.14
2022-08-25T15:24:27.655Z,35.18
2022-08-25T15:27:15.222Z,35.34
2022-08-25T15:29:41.787Z,35.16
2022-08-25T15:32:08.826Z,35.10
2022-08-25T15:34:36.678Z,35.05
2022-08-25T15:37:15.206Z,35.11
2022-08-25T15:39:43.535Z,34.93
2022-08-25T15:42:12.335Z,34.85
2022-08-25T15:44:40.219Z,34.78
2022-08-25T15:47:08.453Z,34.72
2022-08-25T15:49:39.545Z,34.67
2022-08-25T15:52:06.368Z,34.63
2022-08-25T15:54:33.287Z,34.61
2022-08-25T15:57:00.272Z,34.59
2022-08-25T15:59:28.148Z,34.56
2022-08-25T16:01:55.221Z,34.55
2022-08-25T16:04:24.621Z,34.55
2022-08-25T16:06:52.061Z,34.50
2022-08-25T16:09:23.091Z,34.48
2022-08-25T16:11:56.168Z,34.44
2022-08-25T16:14:23.792Z,34.41
2022-08-25T16:16:51.632Z,34.35
2022-08-25T16:19:18.324Z,34.31
2022-08-25T16:21:47.458Z,34.27
2022-08-25T16:24:14.725Z,34.23
2022-08-25T16:26:45.134Z,34.20
2022-08-25T16:29:15.660Z,34.17
2022-08-25T16:35:11.770Z,34.19
2022-08-25T16:37:38.369Z,34.13
2022-08-25T16:40:08.074Z,34.12
2022-08-25T16:42:35.009Z,34.11
2022-08-25T16:45:01.657Z,34.10
2022-08-25T16:47:28.286Z,34.08
2022-08-25T16:49:55.118Z,34.06
2022-08-25T16:52:40.687Z,34.03
2022-08-25T16:55:14.250Z,34.02
2022-08-25T16:57:46.035Z,34.01
2022-08-25T17:00:18.217Z,34.00
2022-08-25T17:02:45.754Z,33.96
2022-08-25T17:05:12.538Z,33.92
2022-08-25T17:07:39.297Z,33.89
2022-08-25T17:10:07.190Z,33.84
2022-08-25T17:12:39.647Z,33.81
2022-08-25T17:15:07.556Z,33.76
2022-08-25T17:17:36.152Z,33.72
2022-08-25T17:20:04.654Z,33.69
2022-08-25T17:22:31.571Z,33.67
2022-08-25T17:25:01.067Z,33.66
2022-08-25T17:27:28.199Z,33.65
2022-08-25T17:29:55.881Z,33.64
2022-08-25T17:32:30.259Z,33.63
2022-08-25T17:34:57.433Z,33.62
2022-08-25T17:37:24.620Z,33.59
2022-08-25T17:39:54.396Z,33.56
2022-08-25T17:42:31.281Z,33.54
2022-08-25T17:44:58.138Z,33.49
2022-08-25T17:47:24.785Z,33.46
2022-08-25T17:49:51.444Z,33.42
2022-08-25T17:52:18.755Z,33.37
2022-08-25T17:54:48.586Z,33.32
2022-08-25T17:57:16.217Z,33.26
2022-08-25T17:59:42.920Z,33.21
2022-08-25T18:02:09.684Z,33.15
2022-08-25T18:04:38.019Z,33.10
2022-08-25T18:07:05.834Z,33.07
2022-08-25T18:09:32.509Z,33.02
2022-08-25T18:11:59.282Z,32.98
2022-08-25T18:14:26.746Z,32.92
2022-08-25T18:16:54.112Z,32.85
2022-08-25T18:19:21.053Z,32.79
2022-08-25T18:21:47.920Z,32.72
2022-08-25T18:24:14.665Z,32.67
2022-08-25T18:26:41.884Z,32.58
2022-08-25T18:29:12.525Z,32.51
2022-08-25T18:31:41.636Z,32.44
2022-08-25T18:34:11.139Z,32.34
2022-08-25T18:36:38.850Z,32.28
2022-08-25T18:39:25.607Z,32.21
2022-08-25T18:41:52.499Z,32.17
2022-08-25T18:44:19.121Z,32.07
2022-08-25T18:46:46.249Z,31.97
2022-08-25T18:49:15.839Z,31.91
2022-08-25T18:51:44.714Z,31.85
2022-08-25T18:54:22.834Z,31.80
2022-08-25T18:56:51.379Z,31.74
2022-08-25T18:59:19.176Z,31.68
2022-08-25T19:01:46.370Z,31.63
2022-08-25T19:04:15.088Z,31.58
2022-08-25T19:06:43.986Z,31.54
2022-08-25T19:09:11.443Z,31.48
2022-08-25T19:11:38.198Z,31.43
2022-08-25T19:14:12.065Z,31.39
2022-08-25T19:16:41.362Z,31.33
2022-08-25T19:19:11.628Z,31.27
2022-08-25T19:21:38.871Z,31.22
2022-08-25T19:24:08.351Z,31.17
2022-08-25T19:26:36.096Z,31.11
2022-08-25T19:29:08.900Z,31.10
2022-08-25T19:31:36.523Z,31.02
2022-08-25T19:34:03.952Z,30.97
2022-08-25T19:36:31.358Z,30.93
2022-08-25T19:39:00.639Z,30.88
2022-08-25T19:41:29.722Z,30.85
2022-08-25T19:43:57.588Z,30.80
2022-08-25T19:46:35.560Z,30.84
2022-08-25T19:49:09.237Z,30.78
2022-08-25T19:51:44.116Z,30.75
2022-08-25T19:54:14.188Z,30.64
2022-08-25T19:56:43.865Z,30.59
2022-08-25T19:59:34.334Z,30.66
2022-08-25T20:02:12.639Z,30.52
2022-08-25T20:04:42.593Z,30.48
2022-08-25T20:07:16.978Z,30.42
2022-08-25T20:09:45.086Z,30.39
2022-08-25T20:12:12.096Z,30.33
2022-08-25T20:14:39.558Z,30.29
2022-08-25T20:17:14.713Z,30.25
2022-08-25T20:19:52.443Z,30.21
2022-08-25T20:22:19.989Z,30.15
2022-08-25T20:24:56.143Z,30.11
2022-08-25T20:27:30.578Z,30.10
2022-08-25T20:29:58.090Z,30.01
2022-08-25T20:32:25.020Z,29.97
2022-08-25T20:34:53.522Z,29.95
2022-08-25T20:37:22.555Z,29.90
2022-08-25T20:39:49.414Z,29.87
2022-08-25T20:42:16.395Z,29.81
2022-08-25T20:44:42.961Z,29.78
2022-08-25T20:47:10.808Z,29.75
2022-08-25T20:49:39.587Z,29.70
2022-08-25T20:52:07.732Z,29.69
2022-08-25T20:54:34.865Z,29.65
2022-08-25T20:57:02.577Z,29.63
2022-08-25T20:59:29.783Z,29.60
2022-08-25T21:01:56.854Z,29.57
2022-08-25T21:04:26.292Z,29.56
2022-08-25T21:06:53.221Z,29.50
2022-08-25T21:09:23.064Z,29.50
2022-08-25T21:11:55.972Z,29.47
2022-08-25T21:14:24.108Z,29.38
2022-08-25T21:16:50.980Z,29.36
2022-08-25T21:19:26.676Z,29.33
2022-08-25T21:22:00.030Z,29.29
2022-08-25T21:24:28.381Z,29.26
2022-08-25T21:26:56.747Z,29.22
2022-08-25T21:29:25.934Z,29.21
2022-08-25T21:31:55.667Z,29.16
2022-08-25T21:34:22.298Z,29.14
2022-08-25T21:36:49.101Z,29.11
2022-08-25T21:39:15.754Z,29.07
2022-08-25T21:41:44.561Z,29.05
2022-08-25T21:44:13.167Z,29.02
2022-08-25T21:46:41.241Z,28.99
2022-08-25T21:49:08.795Z,28.98
2022-08-25T21:51:42.667Z,29.03
2022-08-25T21:54:16.040Z,29.00
2022-08-25T21:56:54.063Z,29.00
2022-08-25T21:59:32.072Z,28.94
2022-08-25T22:02:05.042Z,28.85
2022-08-25T22:04:32.409Z,28.80
2022-08-25T22:06:59.313Z,28.75
2022-08-25T22:09:26.640Z,28.72
2022-08-25T22:11:55.685Z,28.69
2022-08-25T22:14:23.722Z,28.65
2022-08-25T22:16:50.642Z,28.63
2022-08-25T22:19:17.498Z,28.60
2022-08-25T22:21:45.038Z,28.58
2022-08-25T22:24:12.013Z,28.56
2022-08-25T22:26:39.664Z,28.52
2022-08-25T22:29:06.550Z,28.51
2022-08-25T22:31:33.812Z,28.48
2022-08-25T22:34:00.650Z,28.47
2022-08-25T22:36:35.504Z,28.53
2022-08-25T22:39:04.373Z,28.46
2022-08-25T22:41:31.627Z,28.44
2022-08-25T22:44:00.510Z,28.45
2022-08-25T22:46:32.540Z,28.45
2022-08-25T22:48:59.960Z,28.42
2022-08-25T22:51:31.576Z,28.39
2022-08-25T22:53:59.519Z,28.38
2022-08-25T22:56:32.681Z,28.42
2022-08-25T22:59:02.877Z,28.35
2022-08-25T23:01:31.965Z,28.33
2022-08-25T23:04:00.985Z,28.33
2022-08-25T23:06:29.178Z,28.33
2022-08-25T23:08:56.315Z,28.33
2022-08-25T23:11:24.556Z,28.34
2022-08-25T23:13:55.327Z,28.38
2022-08-25T23:16:22.676Z,28.34
2022-08-25T23:18:49.399Z,28.33
2022-08-25T23:21:35.323Z,28.35
2022-08-25T23:24:08.891Z,28.36
2022-08-25T23:26:38.075Z,28.34
2022-08-25T23:29:18.006Z,28.34
2022-08-25T23:31:47.118Z,28.37
2022-08-25T23:34:16.594Z,28.34
2022-08-25T23:36:43.798Z,28.33
2022-08-25T23:39:11.396Z,28.34
2022-08-25T23:41:38.323Z,28.33
2022-08-25T23:44:05.815Z,28.34
2022-08-25T23:46:35.078Z,28.32
2022-08-25T23:49:03.972Z,28.32
2022-08-25T23:51:37.341Z,28.39
2022-08-25T23:54:09.427Z,28.32
2022-08-25T23:56:44.730Z,28.31
2022-08-25T23:59:18.140Z,28.30
